sim
Sign-in with your pilot id or email,
or register
Callsign
Passwort

Schedule Details

Flight Number: DLH1705 (2)
Departure: Sofia Airport (LBSF) at 16:55
Arrival: Munich Airport (EDDM) at 19:00
Route: Lufthansa Passenger Schedule. Enter filed route here before submitting Pirep.

Weather Information
Getting current METAR information for LBSF 211900Z 10008KT CAVOK 15/08 Q1021 NOSIG
Getting current METAR information for EDDM 211920Z 34001KT CAVOK 13/12 Q1016 NOSIG

Schedule Frequency

Route Map